Freeman, MO (64746)

9:37 AM CST on November 24, 2014 (GMT -0600)
Cass County, Freeman | Change Station
CLOSE
Current Station
Personal Weather Station
Location: Freeman, MO
Elevation: 961 ft
Nearby Weather Stations

Elev 961 ft 38.59 °N, 94.52 °W | Updated 18 seconds ago

Clear
Clear
37.6 °F
Feels Like 29 °F
N
14.5
Wind Variable Wind from WNW
Gusts 17.4 mph

Today
High -- | Low -- °F
--% Chance of Precip.
Yesterday
High -- | Low -- °F
Precip. -- in
7:09 AM 4:59 PM
Waxing Crescent, 6% visible
Pressure 29.72 in
Visibility 10.0 miles
Clouds Clear
Windchill 29 °F
Dew Point 25 °F
Humidity 59%
Rainfall 0.00 in
Snow Depth Not available.
UV 1 out of 12
Pollen .10 out of 12
Air Quality Not available.
Flu Activity Not available.
METAR KOJC 241453Z 29017G24KT 10SM CLR 02/M05 A2970 RMK AO2 SLP062 T00171050 51026

More Conditions Fewer Conditions

Pressure 29.72 in
Visibility 10.0 miles
Clouds Clear
Windchill 29 °F
Dew Point 25 °F
Humidity 59%
Rainfall 0.00 in
Snow Depth Not available.
UV 1 out of 12
Pollen .10 out of 12
Air Quality Not available.
Flu Activity Not available.
METAR KOJC 241453Z 29017G24KT 10SM CLR 02/M05 A2970 RMK AO2 SLP062 T00171050 51026

More Conditions Fewer Conditions

10-Day Weather Forecast

Almanac

Astronomy

Nov. 24, 2014 Rise Set
Actual Time
Civil Twilight
Nautical Twilight
Astronomical Twilight
Moon
Length of Visible Light
Length of Day
Tomorrow will be .
, % of the Moon is Illuminated

Today's Extremes

State Highs State Lows

Community

WunderPhotos

Upload Photos

1,773,361 photos uploaded!

WunderBlogs® & News

Nearby

Air Quality

  Air Quality AQ Index Pollutant
Not available.

Snow Depth

Station Depth Elevation

Earthquake Activity

City Distance Mag. Time & Date
Minimum magnitude displayed is 2.5.

Coastal Water Temperatures

Place Temperature

Nearby Weather Stations